Time,TemperatureF,DewpointF,PressureIn,WindDirection,WindDirectionDegrees,WindSpeedMPH,WindSpeedGustMPH,Humidity,HourlyPrecipIn,Conditions,Clouds,dailyrainin,SoftwareType,DateUTC
2017-02-22 00:06:00,42.0,17.0,29.72,WNW,288,4.0,15.0,37,0.00,,,0.00,weatherlink.com 1.10,2017-02-22 07:06:00,
2017-02-22 00:21:00,42.0,18.0,29.71,WNW,291,9.0,17.0,38,0.00,,,0.00,weatherlink.com 1.10,2017-02-22 07:21:00,
2017-02-22 00:36:00,41.4,20.0,29.72,West,270,7.0,22.0,42,0.00,,,0.00,weatherlink.com 1.10,2017-02-22 07:36:00,
2017-02-22 00:51:00,41.4,18.0,29.71,WNW,288,4.0,22.0,39,0.00,,,0.00,weatherlink.com 1.10,2017-02-22 07:51:00,
2017-02-22 01:07:00,41.4,18.0,29.72,West,281,5.0,20.0,39,0.00,,,0.00,weatherlink.com 1.10,2017-02-22 08:07:00,
2017-02-22 01:22:00,38.0,24.0,29.73,WNW,289,7.0,17.0,58,0.00,,,0.00,weatherlink.com 1.10,2017-02-22 08:22:00,
2017-02-22 01:37:00,37.1,24.0,29.72,WNW,291,6.0,16.0,59,0.00,,,0.00,weatherlink.com 1.10,2017-02-22 08:37:00,
2017-02-22 01:52:00,36.5,25.0,29.72,NNW,333,5.0,15.0,63,0.00,,,0.00,weatherlink.com 1.10,2017-02-22 08:52:00,
2017-02-22 02:07:00,32.8,24.0,29.72,West,279,8.0,10.0,70,0.00,,,0.00,weatherlink.com 1.10,2017-02-22 09:07:00,
2017-02-22 02:22:00,31.9,24.0,29.71,WNW,303,6.0,15.0,72,0.00,,,0.00,weatherlink.com 1.10,2017-02-22 09:22:00,
2017-02-22 02:37:00,31.3,25.0,29.72,NW,314,3.0,10.0,76,0.00,,,0.00,weatherlink.com 1.10,2017-02-22 09:37:00,
2017-02-22 02:52:00,30.4,26.0,29.71,WNW,292,6.0,15.0,85,0.00,,,0.00,weatherlink.com 1.10,2017-02-22 09:52:00,
2017-02-22 03:07:00,29.4,25.0,29.71,NW,309,4.0,9.0,83,0.00,,,0.00,weatherlink.com 1.10,2017-02-22 10:07:00,
2017-02-22 03:22:00,29.2,25.0,29.71,WNW,294,5.0,11.0,83,0.00,,,0.00,weatherlink.com 1.10,2017-02-22 10:22:00,
2017-02-22 03:37:00,30.1,25.0,29.71,WNW,292,4.0,10.0,80,0.00,,,0.00,weatherlink.com 1.10,2017-02-22 10:37:00,
2017-02-22 03:52:00,28.7,23.0,29.71,NNW,329,5.0,8.0,79,0.00,,,0.00,weatherlink.com 1.10,2017-02-22 10:52:00,
2017-02-22 04:07:00,28.6,23.0,29.71,NW,322,3.0,12.0,78,0.00,,,0.00,weatherlink.com 1.10,2017-02-22 11:07:00,
2017-02-22 04:22:00,28.6,23.0,29.71,NW,316,6.0,13.0,78,0.00,,,0.00,weatherlink.com 1.10,2017-02-22 11:22:00,
2017-02-22 04:37:00,27.9,22.0,29.72,NNW,327,2.0,10.0,79,0.00,,,0.00,weatherlink.com 1.10,2017-02-22 11:37:00,
2017-02-22 04:52:00,30.6,23.0,29.71,WSW,255,7.0,11.0,73,0.00,,,0.00,weatherlink.com 1.10,2017-02-22 11:52:00,
2017-02-22 05:07:00,35.6,22.0,29.70,WNW,282,6.0,21.0,57,0.00,,,0.00,weatherlink.com 1.10,2017-02-22 12:07:00,
2017-02-22 05:22:00,35.9,21.0,29.70,WSW,242,8.0,21.0,56,0.00,,,0.00,weatherlink.com 1.10,2017-02-22 12:22:00,
2017-02-22 05:37:00,35.8,22.0,29.70,West,274,7.0,17.0,57,0.00,,,0.00,weatherlink.com 1.10,2017-02-22 12:37:00,
2017-02-22 05:52:00,35.6,22.0,29.69,NNW,331,6.0,18.0,59,0.00,,,0.00,weatherlink.com 1.10,2017-02-22 12:52:00,
2017-02-22 06:07:00,34.8,23.0,29.69,WNW,295,1.0,15.0,62,0.00,,,0.00,weatherlink.com 1.10,2017-02-22 13:07:00,
2017-02-22 06:22:00,35.0,23.0,29.70,WSW,241,6.0,18.0,61,0.00,,,0.00,weatherlink.com 1.10,2017-02-22 13:22:00,
2017-02-22 06:37:00,33.5,26.0,29.70,West,279,6.0,21.0,73,0.00,,,0.00,weatherlink.com 1.10,2017-02-22 13:37:00,
2017-02-22 06:52:00,32.2,26.0,29.70,WNW,298,8.0,17.0,77,0.00,,,0.00,weatherlink.com 1.10,2017-02-22 13:52:00,
2017-02-22 07:07:00,30.1,26.0,29.71,WNW,290,5.0,13.0,84,0.00,,,0.00,weatherlink.com 1.10,2017-02-22 14:07:00,
2017-02-22 07:22:00,31.4,27.0,29.71,North,5,3.0,12.0,82,0.00,,,0.00,weatherlink.com 1.10,2017-02-22 14:22:00,
2017-02-22 07:37:00,31.8,26.0,29.70,NW,312,6.0,22.0,80,0.00,,,0.00,weatherlink.com 1.10,2017-02-22 14:37:00,
2017-02-22 07:52:00,34.0,24.0,29.70,WNW,288,6.0,12.0,68,0.00,,,0.00,weatherlink.com 1.10,2017-02-22 14:52:00,
2017-02-22 08:07:00,36.0,24.0,29.69,WNW,297,8.0,22.0,61,0.00,,,0.00,weatherlink.com 1.10,2017-02-22 15:07:00,
2017-02-22 08:22:00,36.0,23.0,29.70,West,279,11.0,22.0,59,0.00,,,0.00,weatherlink.com 1.10,2017-02-22 15:22:00,
2017-02-22 08:37:00,37.2,22.0,29.69,WNW,286,6.0,17.0,55,0.00,,,0.00,weatherlink.com 1.10,2017-02-22 15:37:00,
2017-02-22 08:52:00,37.7,22.0,29.70,WNW,288,6.0,18.0,54,0.00,,,0.00,weatherlink.com 1.10,2017-02-22 15:52:00,
2017-02-22 09:07:00,37.8,21.0,29.70,NW,306,8.0,23.0,52,0.00,,,0.00,weatherlink.com 1.10,2017-02-22 16:07:00,
2017-02-22 09:22:00,37.6,21.0,29.70,WNW,299,12.0,25.0,51,0.00,,,0.00,weatherlink.com 1.10,2017-02-22 16:22:00,
2017-02-22 09:37:00,37.8,21.0,29.70,West,268,7.0,15.0,52,0.00,,,0.00,weatherlink.com 1.10,2017-02-22 16:37:00,
2017-02-22 09:53:00,37.9,22.0,29.70,NW,313,10.0,13.0,54,0.00,,,0.00,weatherlink.com 1.10,2017-02-22 16:53:00,
2017-02-22 10:07:00,38.2,22.0,29.70,NW,304,12.0,13.0,53,0.00,,,0.00,weatherlink.com 1.10,2017-02-22 17:07:00,
2017-02-22 10:22:00,38.1,23.0,29.70,WSW,256,3.0,18.0,54,0.00,,,0.00,weatherlink.com 1.10,2017-02-22 17:22:00,
2017-02-22 10:39:00,38.4,22.0,29.68,SW,232,4.0,16.0,53,0.00,,,0.00,weatherlink.com 1.10,2017-02-22 17:39:00,
2017-02-22 10:52:00,39.0,22.0,29.68,WNW,290,6.0,16.0,51,0.00,,,0.00,weatherlink.com 1.10,2017-02-22 17:52:00,
2017-02-22 11:07:00,39.4,21.0,29.68,NW,315,5.0,15.0,48,0.00,,,0.00,weatherlink.com 1.10,2017-02-22 18:07:00,
2017-02-22 11:23:00,38.2,22.0,29.68,WNW,297,11.0,15.0,52,0.00,,,0.00,weatherlink.com 1.10,2017-02-22 18:23:00,
2017-02-22 11:38:00,37.5,21.0,29.69,WNW,282,6.0,16.0,52,0.00,,,0.00,weatherlink.com 1.10,2017-02-22 18:38:00,
2017-02-22 11:53:00,37.6,21.0,29.68,WNW,286,7.0,19.0,52,0.00,,,0.00,weatherlink.com 1.10,2017-02-22 18:53:00,